CCA4516 ZPPP-ZPLJ
Flight info
| Callsign | CCA4516 |
|---|---|
| Flight time | 0h 39m |
| Altitude | 27600 |
| Route | GUL9W GULOT W146 BUBSU/K0845S1070 W162 CEH |
| Aircraft | A319/M-SDE3FGHIRWY/LB1 |
Departure
| Time | 2026-04-28 13:45 |
|---|---|
| Airport | Kunming Changshui International Airport (ZPPP) |
Arrival
| Time | 2026-04-28 14:25 |
|---|---|
| Airport | Lijiang Sanyi International Airport (ZPLJ) |
| Time | Latitude | Longitude | Altitude | Speed | Heading |
|---|---|---|---|---|---|
| 2026-04-28 13:23 | 25.10218 | 102.92334 | 6897 ft | 0 kts | 40° |
| 2026-04-28 13:36 | 25.10217 | 102.92332 | 6897 ft | 3 kts | 40° |
| 2026-04-28 13:37 | 25.10203 | 102.92319 | 6897 ft | 3 kts | 40° |
| 2026-04-28 13:37 | 25.10188 | 102.92306 | 6897 ft | 3 kts | 40° |
| 2026-04-28 13:37 | 25.10175 | 102.92293 | 6897 ft | 3 kts | 40° |
| 2026-04-28 13:37 | 25.10162 | 102.92282 | 6897 ft | 2 kts | 38° |
| 2026-04-28 13:38 | 25.10147 | 102.92273 | 6897 ft | 2 kts | 358° |
| 2026-04-28 13:38 | 25.10130 | 102.92277 | 6897 ft | 2 kts | 317° |
| 2026-04-28 13:38 | 25.10127 | 102.92281 | 6897 ft | 0 kts | 307° |
| 2026-04-28 13:42 | 25.10135 | 102.92269 | 6897 ft | 5 kts | 310° |
| 2026-04-28 13:42 | 25.10171 | 102.92221 | 6897 ft | 11 kts | 310° |
| 2026-04-28 13:42 | 25.10229 | 102.92142 | 6897 ft | 14 kts | 308° |
| 2026-04-28 13:42 | 25.10221 | 102.92062 | 6897 ft | 13 kts | 222° |
| 2026-04-28 13:43 | 25.10138 | 102.91991 | 6897 ft | 17 kts | 218° |
| 2026-04-28 13:43 | 25.10091 | 102.91922 | 6897 ft | 11 kts | 275° |
| 2026-04-28 13:43 | 25.10141 | 102.91843 | 6897 ft | 14 kts | 309° |
| 2026-04-28 13:43 | 25.10203 | 102.91757 | 6897 ft | 12 kts | 308° |
| 2026-04-28 13:44 | 25.10273 | 102.91741 | 6897 ft | 13 kts | 39° |
| 2026-04-28 13:44 | 25.10360 | 102.91816 | 6898 ft | 26 kts | 38° |
| 2026-04-28 13:44 | 25.10629 | 102.92049 | 6899 ft | 73 kts | 38° |
| 2026-04-28 13:44 | 25.11157 | 102.92505 | 6896 ft | 120 kts | 38° |
| 2026-04-28 13:45 | 25.11946 | 102.93188 | 6896 ft | 167 kts | 38° |
| 2026-04-28 13:45 | 25.12949 | 102.94054 | 7180 ft | 186 kts | 38° |
| 2026-04-28 13:45 | 25.14020 | 102.94834 | 7905 ft | 186 kts | 22° |
| 2026-04-28 13:45 | 25.15232 | 102.95350 | 8625 ft | 185 kts | 22° |
| 2026-04-28 13:46 | 25.16414 | 102.95894 | 9310 ft | 185 kts | 22° |
| 2026-04-28 13:46 | 25.17600 | 102.96457 | 10012 ft | 185 kts | 22° |
| 2026-04-28 13:46 | 25.18811 | 102.97010 | 10451 ft | 196 kts | 21° |
| 2026-04-28 13:46 | 25.20131 | 102.97609 | 10755 ft | 215 kts | 22° |
| 2026-04-28 13:47 | 25.21559 | 102.98292 | 11114 ft | 232 kts | 24° |
| 2026-04-28 13:47 | 25.23191 | 102.98766 | 11358 ft | 257 kts | 357° |
| 2026-04-28 13:47 | 25.24930 | 102.98119 | 11689 ft | 279 kts | 322° |
| 2026-04-28 13:47 | 25.26155 | 102.96382 | 11992 ft | 300 kts | 290° |
| 2026-04-28 13:48 | 25.26405 | 102.94062 | 12263 ft | 322 kts | 262° |
| 2026-04-28 13:48 | 25.25802 | 102.91592 | 12509 ft | 343 kts | 247° |
| 2026-04-28 13:48 | 25.24746 | 102.89186 | 13121 ft | 351 kts | 241° |
| 2026-04-28 13:48 | 25.23528 | 102.86827 | 13837 ft | 356 kts | 239° |
| 2026-04-28 13:49 | 25.22287 | 102.84445 | 14539 ft | 360 kts | 240° |
| 2026-04-28 13:49 | 25.21081 | 102.82008 | 15224 ft | 363 kts | 242° |
| 2026-04-28 13:49 | 25.19920 | 102.79505 | 15896 ft | 367 kts | 243° |
| 2026-04-28 13:49 | 25.18799 | 102.76955 | 16566 ft | 371 kts | 244° |
| 2026-04-28 13:50 | 25.17699 | 102.74360 | 17205 ft | 375 kts | 245° |
| 2026-04-28 13:50 | 25.16601 | 102.71737 | 17842 ft | 378 kts | 245° |
| 2026-04-28 13:50 | 25.15490 | 102.69090 | 18470 ft | 382 kts | 245° |
| 2026-04-28 13:50 | 25.14362 | 102.66422 | 19063 ft | 385 kts | 245° |
| 2026-04-28 13:51 | 25.13216 | 102.63737 | 19677 ft | 389 kts | 244° |
| 2026-04-28 13:51 | 25.12052 | 102.61025 | 20260 ft | 392 kts | 244° |
| 2026-04-28 13:51 | 25.10877 | 102.58296 | 20822 ft | 396 kts | 244° |
| 2026-04-28 13:51 | 25.09687 | 102.55539 | 21380 ft | 399 kts | 244° |
| 2026-04-28 13:52 | 25.08489 | 102.52765 | 21917 ft | 403 kts | 244° |
| 2026-04-28 13:52 | 25.07262 | 102.49976 | 22434 ft | 406 kts | 243° |
| 2026-04-28 13:52 | 25.05971 | 102.47193 | 22925 ft | 409 kts | 242° |
| 2026-04-28 13:52 | 25.04784 | 102.44336 | 23385 ft | 412 kts | 252° |
| 2026-04-28 13:53 | 25.04322 | 102.41214 | 23816 ft | 416 kts | 270° |
| 2026-04-28 13:53 | 25.04721 | 102.38056 | 24249 ft | 419 kts | 286° |
| 2026-04-28 13:53 | 25.05603 | 102.35030 | 24680 ft | 422 kts | 288° |
| 2026-04-28 13:53 | 25.06526 | 102.31949 | 25110 ft | 425 kts | 288° |
| 2026-04-28 13:54 | 25.07461 | 102.28849 | 25530 ft | 427 kts | 288° |
| 2026-04-28 13:54 | 25.08399 | 102.25727 | 25951 ft | 430 kts | 288° |
| 2026-04-28 13:54 | 25.09338 | 102.22584 | 26361 ft | 433 kts | 288° |
| 2026-04-28 13:54 | 25.10278 | 102.19423 | 26756 ft | 435 kts | 288° |
| 2026-04-28 13:55 | 25.11225 | 102.16232 | 27137 ft | 438 kts | 288° |
| 2026-04-28 13:55 | 25.12174 | 102.13027 | 27496 ft | 441 kts | 288° |
| 2026-04-28 13:55 | 25.13134 | 102.09775 | 27600 ft | 450 kts | 288° |
| 2026-04-28 13:55 | 25.14111 | 102.06455 | 27611 ft | 460 kts | 288° |
| 2026-04-28 13:56 | 25.15115 | 102.03058 | 27610 ft | 470 kts | 288° |
| 2026-04-28 13:56 | 25.16136 | 101.99601 | 27609 ft | 478 kts | 288° |
| 2026-04-28 13:56 | 25.17171 | 101.96087 | 27608 ft | 483 kts | 288° |
| 2026-04-28 13:56 | 25.18210 | 101.92549 | 27608 ft | 485 kts | 288° |
| 2026-04-28 13:57 | 25.19253 | 101.89002 | 27610 ft | 485 kts | 288° |
| 2026-04-28 13:57 | 25.20296 | 101.85461 | 27608 ft | 486 kts | 288° |
| 2026-04-28 13:57 | 25.21343 | 101.81915 | 27608 ft | 486 kts | 288° |
| 2026-04-28 13:57 | 25.22389 | 101.78365 | 27610 ft | 486 kts | 288° |
| 2026-04-28 13:58 | 25.23430 | 101.74816 | 27608 ft | 486 kts | 288° |
| 2026-04-28 13:58 | 25.24467 | 101.71262 | 27609 ft | 486 kts | 287° |
| 2026-04-28 13:58 | 25.25503 | 101.67710 | 27609 ft | 486 kts | 288° |
| 2026-04-28 13:58 | 25.26540 | 101.64149 | 27609 ft | 486 kts | 287° |
| 2026-04-28 13:59 | 25.27564 | 101.60636 | 27607 ft | 486 kts | 287° |
| 2026-04-28 13:59 | 25.28600 | 101.57087 | 27605 ft | 486 kts | 288° |
| 2026-04-28 13:59 | 25.29636 | 101.53536 | 27602 ft | 486 kts | 287° |
| 2026-04-28 13:59 | 25.30671 | 101.49984 | 27604 ft | 486 kts | 287° |
| 2026-04-28 14:00 | 25.31705 | 101.46432 | 27604 ft | 486 kts | 287° |
| 2026-04-28 14:00 | 25.32740 | 101.42873 | 27606 ft | 486 kts | 287° |
| 2026-04-28 14:00 | 25.33772 | 101.39318 | 27602 ft | 486 kts | 287° |
| 2026-04-28 14:00 | 25.34801 | 101.35763 | 27605 ft | 486 kts | 287° |
| 2026-04-28 14:01 | 25.35829 | 101.32205 | 27602 ft | 486 kts | 287° |
| 2026-04-28 14:01 | 25.36859 | 101.28639 | 27603 ft | 486 kts | 287° |
| 2026-04-28 14:01 | 25.37887 | 101.25082 | 27601 ft | 486 kts | 287° |
| 2026-04-28 14:01 | 25.38915 | 101.21525 | 27601 ft | 486 kts | 287° |
| 2026-04-28 14:02 | 25.40051 | 101.18012 | 27592 ft | 486 kts | 295° |
| 2026-04-28 14:02 | 25.41842 | 101.14847 | 27595 ft | 486 kts | 309° |
| 2026-04-28 14:02 | 25.44292 | 101.12279 | 27592 ft | 487 kts | 324° |
| 2026-04-28 14:02 | 25.47223 | 101.10410 | 27596 ft | 487 kts | 333° |
| 2026-04-28 14:03 | 25.50248 | 101.08721 | 27597 ft | 487 kts | 333° |
| 2026-04-28 14:03 | 25.53275 | 101.07042 | 27591 ft | 487 kts | 333° |
| 2026-04-28 14:03 | 25.56313 | 101.05359 | 27592 ft | 487 kts | 333° |
| 2026-04-28 14:03 | 25.59300 | 101.03700 | 27593 ft | 487 kts | 333° |
| 2026-04-28 14:04 | 25.62330 | 101.02010 | 27596 ft | 488 kts | 333° |
| 2026-04-28 14:04 | 25.65362 | 101.00314 | 27595 ft | 488 kts | 333° |
| 2026-04-28 14:04 | 25.68396 | 100.98621 | 27594 ft | 488 kts | 333° |
| 2026-04-28 14:04 | 25.71427 | 100.96930 | 27595 ft | 488 kts | 333° |
| 2026-04-28 14:05 | 25.74458 | 100.95239 | 27596 ft | 488 kts | 333° |
| 2026-04-28 14:05 | 25.77487 | 100.93545 | 27596 ft | 488 kts | 333° |
| 2026-04-28 14:05 | 25.80515 | 100.91850 | 27596 ft | 487 kts | 333° |
| 2026-04-28 14:05 | 25.83549 | 100.90152 | 27592 ft | 487 kts | 333° |
| 2026-04-28 14:06 | 25.86577 | 100.88453 | 27593 ft | 487 kts | 333° |
| 2026-04-28 14:06 | 25.89603 | 100.86752 | 27593 ft | 488 kts | 333° |
| 2026-04-28 14:06 | 25.92629 | 100.85050 | 27594 ft | 488 kts | 333° |
| 2026-04-28 14:06 | 25.95660 | 100.83349 | 27597 ft | 488 kts | 333° |
| 2026-04-28 14:07 | 25.98654 | 100.81667 | 27597 ft | 488 kts | 333° |
| 2026-04-28 14:07 | 26.01682 | 100.79965 | 27595 ft | 488 kts | 333° |
| 2026-04-28 14:07 | 26.04708 | 100.78259 | 27595 ft | 488 kts | 333° |
| 2026-04-28 14:07 | 26.07738 | 100.76548 | 27597 ft | 488 kts | 333° |
| 2026-04-28 14:08 | 26.10764 | 100.74840 | 27597 ft | 488 kts | 333° |
| 2026-04-28 14:08 | 26.13790 | 100.73130 | 27598 ft | 488 kts | 333° |
| 2026-04-28 14:08 | 26.16822 | 100.71424 | 27600 ft | 488 kts | 333° |
| 2026-04-28 14:08 | 26.19848 | 100.69722 | 27599 ft | 488 kts | 333° |
| 2026-04-28 14:09 | 26.22874 | 100.68020 | 27601 ft | 484 kts | 333° |
| 2026-04-28 14:09 | 26.25825 | 100.66358 | 27398 ft | 468 kts | 333° |
| 2026-04-28 14:09 | 26.28699 | 100.64733 | 26941 ft | 459 kts | 333° |
| 2026-04-28 14:09 | 26.31545 | 100.63200 | 26463 ft | 450 kts | 338° |
| 2026-04-28 14:10 | 26.34524 | 100.62221 | 25892 ft | 444 kts | 349° |
| 2026-04-28 14:10 | 26.37585 | 100.61908 | 25292 ft | 440 kts | 0° |
| 2026-04-28 14:10 | 26.40611 | 100.62255 | 24691 ft | 435 kts | 11° |
| 2026-04-28 14:10 | 26.43498 | 100.63203 | 24091 ft | 430 kts | 19° |
| 2026-04-28 14:11 | 26.46383 | 100.63951 | 23493 ft | 425 kts | 2° |
| 2026-04-28 14:11 | 26.49249 | 100.63577 | 22898 ft | 419 kts | 343° |
| 2026-04-28 14:11 | 26.51870 | 100.62224 | 22298 ft | 414 kts | 326° |
| 2026-04-28 14:11 | 26.54015 | 100.60126 | 21695 ft | 410 kts | 310° |
| 2026-04-28 14:12 | 26.55540 | 100.57469 | 21096 ft | 406 kts | 293° |
| 2026-04-28 14:12 | 26.56460 | 100.54512 | 19983 ft | 400 kts | 288° |
| 2026-04-28 14:12 | 26.57673 | 100.51753 | 19493 ft | 395 kts | 305° |
| 2026-04-28 14:12 | 26.59587 | 100.49595 | 19081 ft | 390 kts | 323° |
| 2026-04-28 14:13 | 26.62003 | 100.48270 | 18672 ft | 387 kts | 342° |
| 2026-04-28 14:13 | 26.64661 | 100.47903 | 18275 ft | 385 kts | 1° |
| 2026-04-28 14:13 | 26.67270 | 100.48484 | 17809 ft | 382 kts | 15° |
| 2026-04-28 14:13 | 26.69792 | 100.49361 | 17359 ft | 377 kts | 15° |
| 2026-04-28 14:14 | 26.72283 | 100.50225 | 16898 ft | 371 kts | 16° |
| 2026-04-28 14:14 | 26.74736 | 100.51073 | 16454 ft | 367 kts | 16° |
| 2026-04-28 14:14 | 26.77155 | 100.51905 | 16014 ft | 359 kts | 16° |
| 2026-04-28 14:14 | 26.79492 | 100.52706 | 15645 ft | 343 kts | 15° |
| 2026-04-28 14:15 | 26.81699 | 100.53461 | 15553 ft | 319 kts | 16° |
| 2026-04-28 14:15 | 26.83739 | 100.54158 | 15569 ft | 295 kts | 15° |
| 2026-04-28 14:15 | 26.85626 | 100.54805 | 15572 ft | 273 kts | 15° |
| 2026-04-28 14:15 | 26.87398 | 100.55413 | 15592 ft | 261 kts | 15° |
| 2026-04-28 14:16 | 26.89174 | 100.55630 | 15628 ft | 257 kts | 350° |
| 2026-04-28 14:16 | 26.90790 | 100.54910 | 15599 ft | 256 kts | 323° |
| 2026-04-28 14:16 | 26.91926 | 100.53396 | 15365 ft | 257 kts | 295° |
| 2026-04-28 14:16 | 26.92506 | 100.51496 | 15128 ft | 259 kts | 289° |
| 2026-04-28 14:17 | 26.93051 | 100.49559 | 14799 ft | 261 kts | 289° |
| 2026-04-28 14:17 | 26.93601 | 100.47615 | 14524 ft | 262 kts | 289° |
| 2026-04-28 14:17 | 26.94153 | 100.45674 | 14244 ft | 261 kts | 289° |
| 2026-04-28 14:17 | 26.94701 | 100.43745 | 13955 ft | 259 kts | 289° |
| 2026-04-28 14:18 | 26.95249 | 100.41819 | 13628 ft | 258 kts | 289° |
| 2026-04-28 14:18 | 26.95794 | 100.39904 | 13284 ft | 258 kts | 289° |
| 2026-04-28 14:18 | 26.96338 | 100.37974 | 12905 ft | 260 kts | 286° |
| 2026-04-28 14:18 | 26.96480 | 100.36647 | 12661 ft | 261 kts | 265° |
| 2026-04-28 14:19 | 26.95848 | 100.34807 | 12519 ft | 252 kts | 231° |
| 2026-04-28 14:19 | 26.94503 | 100.33652 | 12391 ft | 241 kts | 201° |
| 2026-04-28 14:19 | 26.92948 | 100.33097 | 12258 ft | 229 kts | 196° |
| 2026-04-28 14:19 | 26.91430 | 100.32585 | 11924 ft | 227 kts | 196° |
| 2026-04-28 14:20 | 26.89926 | 100.32072 | 11644 ft | 226 kts | 196° |
| 2026-04-28 14:20 | 26.88433 | 100.31561 | 11336 ft | 223 kts | 196° |
| 2026-04-28 14:20 | 26.86958 | 100.31055 | 11172 ft | 220 kts | 196° |
| 2026-04-28 14:20 | 26.85495 | 100.30554 | 11025 ft | 215 kts | 196° |
| 2026-04-28 14:21 | 26.84096 | 100.30075 | 10758 ft | 207 kts | 196° |
| 2026-04-28 14:21 | 26.82734 | 100.29610 | 10488 ft | 203 kts | 195° |
| 2026-04-28 14:21 | 26.81382 | 100.29147 | 10186 ft | 202 kts | 196° |
| 2026-04-28 14:21 | 26.80042 | 100.28689 | 9915 ft | 199 kts | 195° |
| 2026-04-28 14:22 | 26.78728 | 100.28240 | 9605 ft | 193 kts | 195° |
| 2026-04-28 14:22 | 26.77471 | 100.27810 | 9320 ft | 184 kts | 195° |
| 2026-04-28 14:22 | 26.76309 | 100.27411 | 9087 ft | 167 kts | 195° |
| 2026-04-28 14:22 | 26.75225 | 100.27027 | 8823 ft | 160 kts | 195° |
| 2026-04-28 14:23 | 26.74176 | 100.26667 | 8626 ft | 155 kts | 194° |
| 2026-04-28 14:23 | 26.73146 | 100.26315 | 8357 ft | 154 kts | 195° |
| 2026-04-28 14:23 | 26.72138 | 100.25973 | 8094 ft | 152 kts | 195° |
| 2026-04-28 14:23 | 26.71123 | 100.25631 | 7844 ft | 153 kts | 195° |
| 2026-04-28 14:24 | 26.70107 | 100.25284 | 7548 ft | 152 kts | 195° |
| 2026-04-28 14:24 | 26.69095 | 100.24943 | 7327 ft | 151 kts | 194° |
| 2026-04-28 14:24 | 26.68152 | 100.24627 | 7274 ft | 124 kts | 197° |
| 2026-04-28 14:24 | 26.67497 | 100.24404 | 7269 ft | 67 kts | 197° |
| 2026-04-28 14:25 | 26.67272 | 100.24329 | 7270 ft | 21 kts | 196° |
| 2026-04-28 14:25 | 26.67199 | 100.24382 | 7271 ft | 17 kts | 108° |
| 2026-04-28 14:25 | 26.67190 | 100.24490 | 7272 ft | 15 kts | 74° |
| 2026-04-28 14:25 | 26.67185 | 100.24572 | 7271 ft | 5 kts | 109° |